sensor_id;sensor_type;location;lat;lon;timestamp;P1;durP1;ratioP1;P2;durP2;ratioP2
9117;SDS011;4594;50.994;7.126;2023-12-04T00:01:18;14.60;;;9.00;;
9117;SDS011;4594;50.994;7.126;2023-12-04T00:03:44;15.03;;;9.40;;
9117;SDS011;4594;50.994;7.126;2023-12-04T00:06:10;13.87;;;9.63;;
9117;SDS011;4594;50.994;7.126;2023-12-04T00:08:37;15.37;;;10.13;;
9117;SDS011;4594;50.994;7.126;2023-12-04T00:11:03;14.90;;;9.57;;
9117;SDS011;4594;50.994;7.126;2023-12-04T00:13:30;15.20;;;9.80;;
9117;SDS011;4594;50.994;7.126;2023-12-04T00:15:56;15.17;;;9.03;;
9117;SDS011;4594;50.994;7.126;2023-12-04T00:18:22;13.53;;;9.40;;
9117;SDS011;4594;50.994;7.126;2023-12-04T00:20:48;14.30;;;9.67;;
9117;SDS011;4594;50.994;7.126;2023-12-04T00:23:13;14.00;;;9.20;;
9117;SDS011;4594;50.994;7.126;2023-12-04T00:25:39;12.43;;;8.57;;
9117;SDS011;4594;50.994;7.126;2023-12-04T00:28:05;13.77;;;9.13;;
9117;SDS011;4594;50.994;7.126;2023-12-04T00:30:30;17.97;;;9.83;;
9117;SDS011;4594;50.994;7.126;2023-12-04T00:32:56;15.23;;;9.83;;
9117;SDS011;4594;50.994;7.126;2023-12-04T00:35:22;13.67;;;9.40;;
9117;SDS011;4594;50.994;7.126;2023-12-04T00:37:47;12.37;;;9.07;;
9117;SDS011;4594;50.994;7.126;2023-12-04T00:40:13;13.10;;;8.90;;
9117;SDS011;4594;50.994;7.126;2023-12-04T00:42:39;12.93;;;9.30;;
9117;SDS011;4594;50.994;7.126;2023-12-04T00:45:05;14.77;;;9.83;;
9117;SDS011;4594;50.994;7.126;2023-12-04T00:47:31;16.97;;;10.37;;
9117;SDS011;4594;50.994;7.126;2023-12-04T00:49:57;15.40;;;9.37;;
9117;SDS011;4594;50.994;7.126;2023-12-04T00:52:22;13.07;;;8.83;;
9117;SDS011;4594;50.994;7.126;2023-12-04T00:54:48;15.93;;;9.80;;
9117;SDS011;4594;50.994;7.126;2023-12-04T00:57:14;11.63;;;8.73;;
9117;SDS011;4594;50.994;7.126;2023-12-04T00:59:40;13.83;;;9.50;;
9117;SDS011;4594;50.994;7.126;2023-12-04T01:02:06;14.67;;;8.63;;
9117;SDS011;4594;50.994;7.126;2023-12-04T01:04:32;14.30;;;9.37;;
9117;SDS011;4594;50.994;7.126;2023-12-04T01:06:58;14.63;;;8.80;;
9117;SDS011;4594;50.994;7.126;2023-12-04T01:09:24;14.70;;;9.50;;
9117;SDS011;4594;50.994;7.126;2023-12-04T01:11:53;13.90;;;8.97;;
9117;SDS011;4594;50.994;7.126;2023-12-04T01:14:19;12.43;;;9.10;;
9117;SDS011;4594;50.994;7.126;2023-12-04T01:16:46;12.90;;;8.97;;
9117;SDS011;4594;50.994;7.126;2023-12-04T01:19:12;13.63;;;9.13;;
9117;SDS011;4594;50.994;7.126;2023-12-04T01:21:38;13.57;;;8.90;;
9117;SDS011;4594;50.994;7.126;2023-12-04T01:24:04;14.07;;;8.90;;
9117;SDS011;4594;50.994;7.126;2023-12-04T01:26:30;11.67;;;8.53;;
9117;SDS011;4594;50.994;7.126;2023-12-04T01:28:55;12.73;;;8.83;;
9117;SDS011;4594;50.994;7.126;2023-12-04T01:31:21;12.67;;;8.23;;
9117;SDS011;4594;50.994;7.126;2023-12-04T01:33:47;13.40;;;8.50;;
9117;SDS011;4594;50.994;7.126;2023-12-04T01:36:13;13.63;;;9.30;;
9117;SDS011;4594;50.994;7.126;2023-12-04T01:38:38;11.97;;;8.77;;
9117;SDS011;4594;50.994;7.126;2023-12-04T01:41:04;13.00;;;8.53;;
9117;SDS011;4594;50.994;7.126;2023-12-04T01:43:30;12.97;;;8.63;;
9117;SDS011;4594;50.994;7.126;2023-12-04T01:45:59;13.13;;;8.77;;
9117;SDS011;4594;50.994;7.126;2023-12-04T01:48:26;12.00;;;8.00;;
9117;SDS011;4594;50.994;7.126;2023-12-04T01:50:54;12.27;;;8.50;;
9117;SDS011;4594;50.994;7.126;2023-12-04T01:53:22;14.23;;;9.27;;
9117;SDS011;4594;50.994;7.126;2023-12-04T01:55:49;11.97;;;8.53;;
9117;SDS011;4594;50.994;7.126;2023-12-04T01:58:15;11.47;;;8.67;;
9117;SDS011;4594;50.994;7.126;2023-12-04T02:00:41;12.13;;;8.57;;
9117;SDS011;4594;50.994;7.126;2023-12-04T02:03:07;14.10;;;8.77;;
9117;SDS011;4594;50.994;7.126;2023-12-04T02:05:34;12.20;;;8.53;;
9117;SDS011;4594;50.994;7.126;2023-12-04T02:08:01;12.60;;;8.67;;
9117;SDS011;4594;50.994;7.126;2023-12-04T02:10:29;13.87;;;8.23;;
9117;SDS011;4594;50.994;7.126;2023-12-04T02:12:54;9.97;;;7.67;;
9117;SDS011;4594;50.994;7.126;2023-12-04T02:15:20;12.40;;;8.47;;
9117;SDS011;4594;50.994;7.126;2023-12-04T02:17:46;12.97;;;8.83;;
9117;SDS011;4594;50.994;7.126;2023-12-04T02:20:13;13.90;;;8.77;;
9117;SDS011;4594;50.994;7.126;2023-12-04T02:22:39;12.23;;;8.70;;
9117;SDS011;4594;50.994;7.126;2023-12-04T02:25:05;13.10;;;8.33;;
9117;SDS011;4594;50.994;7.126;2023-12-04T02:27:37;9.17;;;7.10;;
9117;SDS011;4594;50.994;7.126;2023-12-04T02:30:16;10.27;;;8.00;;
9117;SDS011;4594;50.994;7.126;2023-12-04T02:32:47;11.00;;;7.80;;
9117;SDS011;4594;50.994;7.126;2023-12-04T02:35:18;11.43;;;8.37;;
9117;SDS011;4594;50.994;7.126;2023-12-04T02:37:47;12.10;;;8.43;;
9117;SDS011;4594;50.994;7.126;2023-12-04T02:40:14;11.93;;;8.50;;
9117;SDS011;4594;50.994;7.126;2023-12-04T02:42:40;9.30;;;7.87;;
9117;SDS011;4594;50.994;7.126;2023-12-04T02:45:06;13.07;;;8.10;;
9117;SDS011;4594;50.994;7.126;2023-12-04T02:47:33;11.33;;;8.33;;
9117;SDS011;4594;50.994;7.126;2023-12-04T02:49:58;11.23;;;8.13;;
9117;SDS011;4594;50.994;7.126;2023-12-04T02:52:24;10.60;;;7.43;;
9117;SDS011;4594;50.994;7.126;2023-12-04T02:54:50;11.73;;;8.20;;
9117;SDS011;4594;50.994;7.126;2023-12-04T02:57:15;10.20;;;7.47;;
9117;SDS011;4594;50.994;7.126;2023-12-04T02:59:41;11.13;;;7.97;;
9117;SDS011;4594;50.994;7.126;2023-12-04T03:02:07;9.33;;;7.03;;
9117;SDS011;4594;50.994;7.126;2023-12-04T03:04:34;11.27;;;7.90;;
9117;SDS011;4594;50.994;7.126;2023-12-04T03:07:00;10.37;;;7.80;;
9117;SDS011;4594;50.994;7.126;2023-12-04T03:09:26;10.30;;;7.60;;
9117;SDS011;4594;50.994;7.126;2023-12-04T03:11:51;8.93;;;7.57;;
9117;SDS011;4594;50.994;7.126;2023-12-04T03:14:17;8.90;;;7.07;;
9117;SDS011;4594;50.994;7.126;2023-12-04T03:16:43;11.10;;;7.67;;
9117;SDS011;4594;50.994;7.126;2023-12-04T03:19:08;11.93;;;8.07;;
9117;SDS011;4594;50.994;7.126;2023-12-04T03:21:34;9.37;;;7.00;;
9117;SDS011;4594;50.994;7.126;2023-12-04T03:24:00;10.57;;;7.67;;
9117;SDS011;4594;50.994;7.126;2023-12-04T03:26:26;8.50;;;7.43;;
9117;SDS011;4594;50.994;7.126;2023-12-04T03:28:53;11.70;;;7.57;;
9117;SDS011;4594;50.994;7.126;2023-12-04T03:31:18;12.00;;;7.03;;
9117;SDS011;4594;50.994;7.126;2023-12-04T03:33:44;10.73;;;7.90;;
9117;SDS011;4594;50.994;7.126;2023-12-04T03:36:10;11.07;;;7.90;;
9117;SDS011;4594;50.994;7.126;2023-12-04T03:38:35;15.77;;;8.00;;
9117;SDS011;4594;50.994;7.126;2023-12-04T03:41:01;11.03;;;7.63;;
9117;SDS011;4594;50.994;7.126;2023-12-04T03:43:27;12.17;;;8.10;;
9117;SDS011;4594;50.994;7.126;2023-12-04T03:45:53;10.43;;;7.53;;
9117;SDS011;4594;50.994;7.126;2023-12-04T03:48:18;9.23;;;7.57;;
9117;SDS011;4594;50.994;7.126;2023-12-04T03:50:44;11.77;;;8.10;;
9117;SDS011;4594;50.994;7.126;2023-12-04T03:53:10;10.43;;;8.20;;
9117;SDS011;4594;50.994;7.126;2023-12-04T03:55:35;11.63;;;8.50;;
9117;SDS011;4594;50.994;7.126;2023-12-04T03:58:02;9.63;;;7.33;;
9117;SDS011;4594;50.994;7.126;2023-12-04T04:00:28;11.80;;;8.07;;
9117;SDS011;4594;50.994;7.126;2023-12-04T04:02:54;11.27;;;7.80;;
9117;SDS011;4594;50.994;7.126;2023-12-04T04:05:20;10.60;;;8.37;;
9117;SDS011;4594;50.994;7.126;2023-12-04T04:07:45;11.47;;;7.90;;
9117;SDS011;4594;50.994;7.126;2023-12-04T04:10:11;10.67;;;8.47;;
9117;SDS011;4594;50.994;7.126;2023-12-04T04:12:37;10.30;;;7.67;;
9117;SDS011;4594;50.994;7.126;2023-12-04T04:15:03;13.73;;;8.37;;
9117;SDS011;4594;50.994;7.126;2023-12-04T04:17:29;10.73;;;8.17;;
9117;SDS011;4594;50.994;7.126;2023-12-04T04:19:55;10.37;;;7.93;;
9117;SDS011;4594;50.994;7.126;2023-12-04T04:22:21;13.10;;;8.60;;
9117;SDS011;4594;50.994;7.126;2023-12-04T04:24:47;11.60;;;8.40;;
9117;SDS011;4594;50.994;7.126;2023-12-04T04:27:13;13.90;;;8.60;;
9117;SDS011;4594;50.994;7.126;2023-12-04T04:29:39;10.53;;;8.20;;
9117;SDS011;4594;50.994;7.126;2023-12-04T04:32:05;13.83;;;8.60;;
9117;SDS011;4594;50.994;7.126;2023-12-04T04:34:31;10.77;;;8.20;;
9117;SDS011;4594;50.994;7.126;2023-12-04T04:36:57;13.13;;;8.57;;
9117;SDS011;4594;50.994;7.126;2023-12-04T04:39:23;12.47;;;8.27;;
9117;SDS011;4594;50.994;7.126;2023-12-04T04:41:49;13.03;;;8.70;;
9117;SDS011;4594;50.994;7.126;2023-12-04T04:44:14;12.40;;;8.13;;
9117;SDS011;4594;50.994;7.126;2023-12-04T04:46:40;12.63;;;8.87;;
9117;SDS011;4594;50.994;7.126;2023-12-04T04:49:06;13.33;;;9.03;;
9117;SDS011;4594;50.994;7.126;2023-12-04T04:51:32;13.33;;;8.50;;
9117;SDS011;4594;50.994;7.126;2023-12-04T04:53:59;10.67;;;7.93;;
9117;SDS011;4594;50.994;7.126;2023-12-04T04:56:25;12.17;;;8.93;;
9117;SDS011;4594;50.994;7.126;2023-12-04T04:58:53;14.37;;;9.40;;
9117;SDS011;4594;50.994;7.126;2023-12-04T05:01:18;11.20;;;8.70;;
9117;SDS011;4594;50.994;7.126;2023-12-04T05:03:45;11.53;;;8.53;;
9117;SDS011;4594;50.994;7.126;2023-12-04T05:06:11;12.70;;;8.57;;
9117;SDS011;4594;50.994;7.126;2023-12-04T05:08:37;13.30;;;8.57;;
9117;SDS011;4594;50.994;7.126;2023-12-04T05:11:02;12.90;;;8.70;;
9117;SDS011;4594;50.994;7.126;2023-12-04T05:13:29;11.93;;;9.00;;
9117;SDS011;4594;50.994;7.126;2023-12-04T05:15:55;11.50;;;9.07;;
9117;SDS011;4594;50.994;7.126;2023-12-04T05:18:20;18.37;;;8.83;;
9117;SDS011;4594;50.994;7.126;2023-12-04T05:20:46;12.43;;;9.57;;
9117;SDS011;4594;50.994;7.126;2023-12-04T05:23:12;14.13;;;9.20;;
9117;SDS011;4594;50.994;7.126;2023-12-04T05:25:37;13.20;;;8.90;;
9117;SDS011;4594;50.994;7.126;2023-12-04T05:28:03;13.40;;;9.10;;
9117;SDS011;4594;50.994;7.126;2023-12-04T05:30:29;13.53;;;8.77;;
9117;SDS011;4594;50.994;7.126;2023-12-04T05:32:55;13.20;;;9.30;;
9117;SDS011;4594;50.994;7.126;2023-12-04T05:35:21;13.33;;;9.00;;
9117;SDS011;4594;50.994;7.126;2023-12-04T05:37:47;13.93;;;9.27;;
9117;SDS011;4594;50.994;7.126;2023-12-04T05:40:13;13.27;;;8.87;;
9117;SDS011;4594;50.994;7.126;2023-12-04T05:42:39;13.33;;;8.97;;
9117;SDS011;4594;50.994;7.126;2023-12-04T05:45:05;14.50;;;9.43;;
9117;SDS011;4594;50.994;7.126;2023-12-04T05:47:32;11.77;;;8.70;;
9117;SDS011;4594;50.994;7.126;2023-12-04T05:49:59;14.10;;;9.03;;
9117;SDS011;4594;50.994;7.126;2023-12-04T05:52:25;13.40;;;9.20;;
9117;SDS011;4594;50.994;7.126;2023-12-04T05:54:51;12.57;;;9.43;;
9117;SDS011;4594;50.994;7.126;2023-12-04T05:57:17;15.77;;;9.43;;
9117;SDS011;4594;50.994;7.126;2023-12-04T05:59:42;14.17;;;9.10;;
9117;SDS011;4594;50.994;7.126;2023-12-04T06:02:09;13.10;;;9.27;;
9117;SDS011;4594;50.994;7.126;2023-12-04T06:04:34;13.80;;;9.57;;
9117;SDS011;4594;50.994;7.126;2023-12-04T06:07:00;15.23;;;9.47;;
9117;SDS011;4594;50.994;7.126;2023-12-04T06:09:26;14.80;;;9.77;;
9117;SDS011;4594;50.994;7.126;2023-12-04T06:11:51;15.73;;;10.47;;
9117;SDS011;4594;50.994;7.126;2023-12-04T06:14:17;14.00;;;9.50;;
9117;SDS011;4594;50.994;7.126;2023-12-04T06:16:43;13.53;;;8.80;;
9117;SDS011;4594;50.994;7.126;2023-12-04T06:19:08;14.50;;;9.33;;
9117;SDS011;4594;50.994;7.126;2023-12-04T06:21:34;12.77;;;9.07;;
9117;SDS011;4594;50.994;7.126;2023-12-04T06:24:00;13.63;;;8.57;;
9117;SDS011;4594;50.994;7.126;2023-12-04T06:26:26;13.80;;;9.30;;
9117;SDS011;4594;50.994;7.126;2023-12-04T06:28:52;14.97;;;9.87;;
9117;SDS011;4594;50.994;7.126;2023-12-04T06:31:18;15.30;;;9.30;;
9117;SDS011;4594;50.994;7.126;2023-12-04T06:33:44;13.83;;;9.07;;
9117;SDS011;4594;50.994;7.126;2023-12-04T06:36:10;13.03;;;9.33;;
9117;SDS011;4594;50.994;7.126;2023-12-04T06:38:39;12.17;;;8.57;;
9117;SDS011;4594;50.994;7.126;2023-12-04T06:41:06;12.43;;;8.53;;
9117;SDS011;4594;50.994;7.126;2023-12-04T06:43:33;12.07;;;8.53;;
9117;SDS011;4594;50.994;7.126;2023-12-04T06:45:59;11.73;;;8.73;;
9117;SDS011;4594;50.994;7.126;2023-12-04T06:48:25;11.43;;;8.37;;
9117;SDS011;4594;50.994;7.126;2023-12-04T06:50:51;13.77;;;9.20;;
9117;SDS011;4594;50.994;7.126;2023-12-04T06:53:18;13.40;;;8.60;;
9117;SDS011;4594;50.994;7.126;2023-12-04T06:55:43;12.87;;;9.03;;
9117;SDS011;4594;50.994;7.126;2023-12-04T06:58:09;10.63;;;8.90;;
9117;SDS011;4594;50.994;7.126;2023-12-04T07:00:35;12.37;;;8.53;;
9117;SDS011;4594;50.994;7.126;2023-12-04T07:03:01;11.00;;;8.40;;
9117;SDS011;4594;50.994;7.126;2023-12-04T07:05:26;13.00;;;8.90;;
9117;SDS011;4594;50.994;7.126;2023-12-04T07:07:52;10.83;;;7.70;;
9117;SDS011;4594;50.994;7.126;2023-12-04T07:10:18;11.17;;;8.23;;
9117;SDS011;4594;50.994;7.126;2023-12-04T07:12:44;10.17;;;7.60;;
9117;SDS011;4594;50.994;7.126;2023-12-04T07:15:10;10.40;;;7.70;;
9117;SDS011;4594;50.994;7.126;2023-12-04T07:17:37;11.60;;;8.03;;
9117;SDS011;4594;50.994;7.126;2023-12-04T07:20:04;8.77;;;7.40;;
9117;SDS011;4594;50.994;7.126;2023-12-04T07:22:33;9.87;;;7.80;;
9117;SDS011;4594;50.994;7.126;2023-12-04T07:24:59;8.90;;;7.63;;
9117;SDS011;4594;50.994;7.126;2023-12-04T07:27:25;11.53;;;8.10;;
9117;SDS011;4594;50.994;7.126;2023-12-04T07:29:51;10.90;;;7.30;;
9117;SDS011;4594;50.994;7.126;2023-12-04T07:32:16;12.93;;;7.77;;
9117;SDS011;4594;50.994;7.126;2023-12-04T07:34:45;9.33;;;7.33;;
9117;SDS011;4594;50.994;7.126;2023-12-04T07:37:10;10.73;;;7.87;;
9117;SDS011;4594;50.994;7.126;2023-12-04T07:39:36;9.80;;;7.63;;
9117;SDS011;4594;50.994;7.126;2023-12-04T07:42:02;8.33;;;6.90;;
9117;SDS011;4594;50.994;7.126;2023-12-04T07:44:28;9.33;;;6.77;;
9117;SDS011;4594;50.994;7.126;2023-12-04T07:46:55;9.17;;;6.63;;
9117;SDS011;4594;50.994;7.126;2023-12-04T07:49:20;10.53;;;7.43;;
9117;SDS011;4594;50.994;7.126;2023-12-04T07:51:46;9.63;;;7.83;;
9117;SDS011;4594;50.994;7.126;2023-12-04T07:54:12;9.93;;;7.50;;
9117;SDS011;4594;50.994;7.126;2023-12-04T07:56:37;9.53;;;6.90;;
9117;SDS011;4594;50.994;7.126;2023-12-04T07:59:03;8.60;;;6.70;;
9117;SDS011;4594;50.994;7.126;2023-12-04T08:01:29;7.77;;;6.87;;
9117;SDS011;4594;50.994;7.126;2023-12-04T08:03:55;8.43;;;6.80;;
9117;SDS011;4594;50.994;7.126;2023-12-04T08:06:21;9.27;;;6.60;;
9117;SDS011;4594;50.994;7.126;2023-12-04T08:08:46;7.37;;;6.40;;
9117;SDS011;4594;50.994;7.126;2023-12-04T08:11:12;9.13;;;6.80;;
9117;SDS011;4594;50.994;7.126;2023-12-04T08:13:38;10.70;;;6.93;;
9117;SDS011;4594;50.994;7.126;2023-12-04T08:16:05;8.63;;;7.03;;
9117;SDS011;4594;50.994;7.126;2023-12-04T08:18:38;10.23;;;7.00;;
9117;SDS011;4594;50.994;7.126;2023-12-04T08:21:03;9.03;;;6.93;;
9117;SDS011;4594;50.994;7.126;2023-12-04T08:23:29;9.93;;;7.30;;
9117;SDS011;4594;50.994;7.126;2023-12-04T08:25:55;10.37;;;7.33;;
9117;SDS011;4594;50.994;7.126;2023-12-04T08:28:22;9.23;;;7.03;;
9117;SDS011;4594;50.994;7.126;2023-12-04T08:30:48;11.23;;;7.93;;
9117;SDS011;4594;50.994;7.126;2023-12-04T08:33:13;9.80;;;7.07;;
9117;SDS011;4594;50.994;7.126;2023-12-04T08:35:39;7.93;;;7.13;;
9117;SDS011;4594;50.994;7.126;2023-12-04T08:38:05;7.00;;;6.30;;
9117;SDS011;4594;50.994;7.126;2023-12-04T08:40:31;11.97;;;7.73;;
9117;SDS011;4594;50.994;7.126;2023-12-04T08:42:57;10.23;;;6.73;;
9117;SDS011;4594;50.994;7.126;2023-12-04T08:45:23;8.93;;;6.50;;
9117;SDS011;4594;50.994;7.126;2023-12-04T08:47:49;11.73;;;8.37;;
9117;SDS011;4594;50.994;7.126;2023-12-04T08:50:15;10.77;;;8.70;;
9117;SDS011;4594;50.994;7.126;2023-12-04T08:52:41;12.23;;;9.30;;
9117;SDS011;4594;50.994;7.126;2023-12-04T08:55:07;11.17;;;7.80;;
9117;SDS011;4594;50.994;7.126;2023-12-04T08:57:34;9.73;;;7.53;;
9117;SDS011;4594;50.994;7.126;2023-12-04T09:00:00;8.07;;;6.67;;
9117;SDS011;4594;50.994;7.126;2023-12-04T09:02:25;9.93;;;7.00;;
9117;SDS011;4594;50.994;7.126;2023-12-04T09:04:51;9.70;;;6.63;;
9117;SDS011;4594;50.994;7.126;2023-12-04T09:07:17;8.90;;;7.00;;
9117;SDS011;4594;50.994;7.126;2023-12-04T09:09:42;7.47;;;6.60;;
9117;SDS011;4594;50.994;7.126;2023-12-04T09:12:09;8.23;;;6.43;;
9117;SDS011;4594;50.994;7.126;2023-12-04T09:14:35;9.03;;;6.40;;
9117;SDS011;4594;50.994;7.126;2023-12-04T09:17:01;8.63;;;7.03;;
9117;SDS011;4594;50.994;7.126;2023-12-04T09:19:28;9.97;;;7.60;;
9117;SDS011;4594;50.994;7.126;2023-12-04T09:21:54;9.73;;;7.20;;
9117;SDS011;4594;50.994;7.126;2023-12-04T09:24:20;8.80;;;7.00;;
9117;SDS011;4594;50.994;7.126;2023-12-04T09:26:46;8.37;;;6.73;;
9117;SDS011;4594;50.994;7.126;2023-12-04T09:29:11;9.70;;;6.90;;
9117;SDS011;4594;50.994;7.126;2023-12-04T09:31:37;9.67;;;7.47;;
9117;SDS011;4594;50.994;7.126;2023-12-04T09:34:03;10.00;;;7.33;;
9117;SDS011;4594;50.994;7.126;2023-12-04T09:36:30;9.00;;;6.83;;
9117;SDS011;4594;50.994;7.126;2023-12-04T09:38:56;9.93;;;7.13;;
9117;SDS011;4594;50.994;7.126;2023-12-04T09:41:22;8.40;;;6.87;;
9117;SDS011;4594;50.994;7.126;2023-12-04T09:43:48;8.70;;;6.60;;
9117;SDS011;4594;50.994;7.126;2023-12-04T09:46:14;8.87;;;6.70;;
9117;SDS011;4594;50.994;7.126;2023-12-04T09:48:42;8.83;;;6.80;;
9117;SDS011;4594;50.994;7.126;2023-12-04T09:51:09;7.50;;;6.33;;
9117;SDS011;4594;50.994;7.126;2023-12-04T09:53:35;7.93;;;6.60;;
9117;SDS011;4594;50.994;7.126;2023-12-04T09:56:05;8.77;;;6.67;;
9117;SDS011;4594;50.994;7.126;2023-12-04T09:58:34;8.60;;;6.70;;
9117;SDS011;4594;50.994;7.126;2023-12-04T10:01:05;9.83;;;6.63;;
9117;SDS011;4594;50.994;7.126;2023-12-04T10:03:32;8.83;;;6.43;;
9117;SDS011;4594;50.994;7.126;2023-12-04T10:06:00;7.97;;;6.83;;
9117;SDS011;4594;50.994;7.126;2023-12-04T10:08:26;7.13;;;6.40;;
9117;SDS011;4594;50.994;7.126;2023-12-04T10:10:52;7.57;;;6.33;;
9117;SDS011;4594;50.994;7.126;2023-12-04T10:13:17;8.17;;;6.37;;
9117;SDS011;4594;50.994;7.126;2023-12-04T10:15:49;7.23;;;6.53;;
9117;SDS011;4594;50.994;7.126;2023-12-04T10:18:26;7.10;;;6.17;;
9117;SDS011;4594;50.994;7.126;2023-12-04T10:20:55;9.57;;;6.37;;
9117;SDS011;4594;50.994;7.126;2023-12-04T10:23:22;8.83;;;6.50;;
9117;SDS011;4594;50.994;7.126;2023-12-04T10:26:00;8.10;;;6.57;;
9117;SDS011;4594;50.994;7.126;2023-12-04T10:28:26;17.33;;;6.70;;
9117;SDS011;4594;50.994;7.126;2023-12-04T10:30:52;7.90;;;6.10;;
9117;SDS011;4594;50.994;7.126;2023-12-04T10:33:18;9.83;;;6.50;;
9117;SDS011;4594;50.994;7.126;2023-12-04T10:35:44;9.17;;;6.80;;
9117;SDS011;4594;50.994;7.126;2023-12-04T10:38:12;7.47;;;6.33;;
9117;SDS011;4594;50.994;7.126;2023-12-04T10:40:39;10.90;;;6.97;;
9117;SDS011;4594;50.994;7.126;2023-12-04T10:45:34;7.80;;;5.97;;
9117;SDS011;4594;50.994;7.126;2023-12-04T10:48:02;10.63;;;7.00;;
9117;SDS011;4594;50.994;7.126;2023-12-04T10:50:50;7.87;;;6.27;;
9117;SDS011;4594;50.994;7.126;2023-12-04T10:53:17;9.20;;;6.70;;
9117;SDS011;4594;50.994;7.126;2023-12-04T10:55:42;8.07;;;7.13;;
9117;SDS011;4594;50.994;7.126;2023-12-04T10:58:11;9.47;;;6.83;;
9117;SDS011;4594;50.994;7.126;2023-12-04T11:00:47;9.97;;;6.33;;
9117;SDS011;4594;50.994;7.126;2023-12-04T11:05:58;7.40;;;6.00;;
9117;SDS011;4594;50.994;7.126;2023-12-04T11:08:28;11.17;;;6.97;;
9117;SDS011;4594;50.994;7.126;2023-12-04T11:10:59;8.07;;;6.40;;
9117;SDS011;4594;50.994;7.126;2023-12-04T11:13:32;7.23;;;6.53;;
9117;SDS011;4594;50.994;7.126;2023-12-04T11:16:06;8.33;;;6.47;;
9117;SDS011;4594;50.994;7.126;2023-12-04T11:18:38;7.93;;;6.33;;
9117;SDS011;4594;50.994;7.126;2023-12-04T11:21:12;7.10;;;6.37;;
9117;SDS011;4594;50.994;7.126;2023-12-04T11:23:38;9.60;;;7.27;;
9117;SDS011;4594;50.994;7.126;2023-12-04T11:26:06;7.33;;;6.50;;
9117;SDS011;4594;50.994;7.126;2023-12-04T11:28:34;9.93;;;7.13;;
9117;SDS011;4594;50.994;7.126;2023-12-04T11:31:03;7.50;;;6.50;;
9117;SDS011;4594;50.994;7.126;2023-12-04T11:33:34;7.97;;;6.70;;
9117;SDS011;4594;50.994;7.126;2023-12-04T11:36:11;8.20;;;6.80;;
9117;SDS011;4594;50.994;7.126;2023-12-04T11:38:40;8.90;;;7.30;;
9117;SDS011;4594;50.994;7.126;2023-12-04T11:41:20;8.90;;;7.07;;
9117;SDS011;4594;50.994;7.126;2023-12-04T11:43:47;8.07;;;6.67;;
9117;SDS011;4594;50.994;7.126;2023-12-04T11:46:14;9.60;;;7.53;;
9117;SDS011;4594;50.994;7.126;2023-12-04T11:48:48;9.10;;;6.93;;
9117;SDS011;4594;50.994;7.126;2023-12-04T11:51:44;12.43;;;8.83;;
9117;SDS011;4594;50.994;7.126;2023-12-04T11:54:04;9.60;;;7.67;;
9117;SDS011;4594;50.994;7.126;2023-12-04T11:56:33;14.60;;;8.20;;
9117;SDS011;4594;50.994;7.126;2023-12-04T11:59:02;11.70;;;7.40;;
9117;SDS011;4594;50.994;7.126;2023-12-04T12:01:33;12.53;;;8.00;;
9117;SDS011;4594;50.994;7.126;2023-12-04T12:04:02;9.37;;;7.67;;
9117;SDS011;4594;50.994;7.126;2023-12-04T12:06:35;13.43;;;8.33;;
9117;SDS011;4594;50.994;7.126;2023-12-04T12:09:00;11.60;;;8.43;;
9117;SDS011;4594;50.994;7.126;2023-12-04T12:11:26;13.60;;;8.93;;
9117;SDS011;4594;50.994;7.126;2023-12-04T12:13:53;12.90;;;8.20;;
9117;SDS011;4594;50.994;7.126;2023-12-04T12:16:19;11.37;;;7.37;;
9117;SDS011;4594;50.994;7.126;2023-12-04T12:18:45;11.33;;;7.70;;
9117;SDS011;4594;50.994;7.126;2023-12-04T12:21:12;12.60;;;8.40;;
9117;SDS011;4594;50.994;7.126;2023-12-04T12:23:37;8.40;;;7.03;;
9117;SDS011;4594;50.994;7.126;2023-12-04T12:26:04;9.80;;;7.30;;
9117;SDS011;4594;50.994;7.126;2023-12-04T12:28:30;9.17;;;7.50;;
9117;SDS011;4594;50.994;7.126;2023-12-04T12:30:56;9.43;;;6.97;;
9117;SDS011;4594;50.994;7.126;2023-12-04T12:33:25;9.70;;;6.90;;
9117;SDS011;4594;50.994;7.126;2023-12-04T12:35:51;10.13;;;7.60;;
9117;SDS011;4594;50.994;7.126;2023-12-04T12:38:17;10.87;;;7.50;;
9117;SDS011;4594;50.994;7.126;2023-12-04T12:40:44;8.53;;;6.83;;
9117;SDS011;4594;50.994;7.126;2023-12-04T12:43:09;10.67;;;7.30;;
9117;SDS011;4594;50.994;7.126;2023-12-04T12:45:41;8.80;;;6.73;;
9117;SDS011;4594;50.994;7.126;2023-12-04T12:48:15;10.17;;;6.80;;
9117;SDS011;4594;50.994;7.126;2023-12-04T12:50:42;9.27;;;6.73;;
9117;SDS011;4594;50.994;7.126;2023-12-04T12:53:12;8.87;;;6.47;;
9117;SDS011;4594;50.994;7.126;2023-12-04T12:55:42;7.67;;;6.50;;
9117;SDS011;4594;50.994;7.126;2023-12-04T12:58:11;8.23;;;6.50;;
9117;SDS011;4594;50.994;7.126;2023-12-04T13:00:39;11.37;;;7.83;;
9117;SDS011;4594;50.994;7.126;2023-12-04T13:03:06;9.60;;;7.37;;
9117;SDS011;4594;50.994;7.126;2023-12-04T13:05:42;8.67;;;6.90;;
9117;SDS011;4594;50.994;7.126;2023-12-04T13:08:08;7.40;;;6.47;;
9117;SDS011;4594;50.994;7.126;2023-12-04T13:10:36;9.50;;;6.70;;
9117;SDS011;4594;50.994;7.126;2023-12-04T13:13:02;9.50;;;6.97;;
9117;SDS011;4594;50.994;7.126;2023-12-04T13:15:28;8.90;;;6.87;;
9117;SDS011;4594;50.994;7.126;2023-12-04T13:17:54;7.43;;;6.53;;
9117;SDS011;4594;50.994;7.126;2023-12-04T13:20:21;12.10;;;7.00;;
9117;SDS011;4594;50.994;7.126;2023-12-04T13:22:48;9.73;;;6.90;;
9117;SDS011;4594;50.994;7.126;2023-12-04T13:25:14;7.43;;;6.40;;
9117;SDS011;4594;50.994;7.126;2023-12-04T13:27:40;8.70;;;7.03;;
9117;SDS011;4594;50.994;7.126;2023-12-04T13:30:06;7.93;;;6.43;;
9117;SDS011;4594;50.994;7.126;2023-12-04T13:32:36;10.07;;;6.17;;
9117;SDS011;4594;50.994;7.126;2023-12-04T13:35:03;10.33;;;6.70;;
9117;SDS011;4594;50.994;7.126;2023-12-04T13:37:30;9.23;;;6.20;;
9117;SDS011;4594;50.994;7.126;2023-12-04T13:39:58;8.43;;;6.77;;
9117;SDS011;4594;50.994;7.126;2023-12-04T13:42:28;7.07;;;6.37;;
9117;SDS011;4594;50.994;7.126;2023-12-04T13:45:12;7.77;;;6.40;;
9117;SDS011;4594;50.994;7.126;2023-12-04T13:47:38;11.40;;;6.07;;
9117;SDS011;4594;50.994;7.126;2023-12-04T13:50:07;7.10;;;6.17;;
9117;SDS011;4594;50.994;7.126;2023-12-04T13:52:36;7.90;;;5.97;;
9117;SDS011;4594;50.994;7.126;2023-12-04T13:55:03;9.43;;;6.03;;
9117;SDS011;4594;50.994;7.126;2023-12-04T13:57:44;8.37;;;6.57;;
9117;SDS011;4594;50.994;7.126;2023-12-04T14:00:25;7.53;;;6.10;;
9117;SDS011;4594;50.994;7.126;2023-12-04T14:02:51;7.13;;;5.93;;
9117;SDS011;4594;50.994;7.126;2023-12-04T14:05:28;6.70;;;5.93;;
9117;SDS011;4594;50.994;7.126;2023-12-04T14:07:58;8.60;;;6.33;;
9117;SDS011;4594;50.994;7.126;2023-12-04T14:10:25;7.27;;;6.33;;
9117;SDS011;4594;50.994;7.126;2023-12-04T14:12:52;7.47;;;5.90;;
9117;SDS011;4594;50.994;7.126;2023-12-04T14:15:19;7.43;;;6.00;;
9117;SDS011;4594;50.994;7.126;2023-12-04T14:17:47;6.63;;;5.93;;
9117;SDS011;4594;50.994;7.126;2023-12-04T14:20:14;7.13;;;6.43;;
9117;SDS011;4594;50.994;7.126;2023-12-04T14:22:43;7.20;;;6.07;;
9117;SDS011;4594;50.994;7.126;2023-12-04T14:25:11;9.23;;;6.27;;
9117;SDS011;4594;50.994;7.126;2023-12-04T14:27:36;7.40;;;6.27;;
9117;SDS011;4594;50.994;7.126;2023-12-04T14:30:09;6.30;;;5.70;;
9117;SDS011;4594;50.994;7.126;2023-12-04T14:32:36;7.50;;;6.13;;
9117;SDS011;4594;50.994;7.126;2023-12-04T14:35:03;8.43;;;6.30;;
9117;SDS011;4594;50.994;7.126;2023-12-04T14:37:29;8.73;;;6.20;;
9117;SDS011;4594;50.994;7.126;2023-12-04T14:39:55;8.03;;;6.30;;
9117;SDS011;4594;50.994;7.126;2023-12-04T14:42:21;7.40;;;5.60;;
9117;SDS011;4594;50.994;7.126;2023-12-04T14:44:47;8.13;;;5.60;;
9117;SDS011;4594;50.994;7.126;2023-12-04T14:47:13;6.80;;;5.57;;
9117;SDS011;4594;50.994;7.126;2023-12-04T14:49:39;5.83;;;5.27;;
9117;SDS011;4594;50.994;7.126;2023-12-04T14:52:04;6.33;;;5.40;;
9117;SDS011;4594;50.994;7.126;2023-12-04T14:54:32;6.40;;;5.10;;
9117;SDS011;4594;50.994;7.126;2023-12-04T14:57:17;6.47;;;5.60;;
9117;SDS011;4594;50.994;7.126;2023-12-04T14:59:43;6.13;;;5.40;;
9117;SDS011;4594;50.994;7.126;2023-12-04T15:02:15;5.87;;;5.27;;
9117;SDS011;4594;50.994;7.126;2023-12-04T15:05:00;5.00;;;4.60;;
9117;SDS011;4594;50.994;7.126;2023-12-04T15:07:28;6.53;;;5.83;;
9117;SDS011;4594;50.994;7.126;2023-12-04T15:09:57;6.00;;;4.67;;
9117;SDS011;4594;50.994;7.126;2023-12-04T15:12:41;5.83;;;5.23;;